Time;durP1;ratioP1;P1;durP2;ratioP2;P2;SDS_P1;SDS_P2;PMS_P1;PMS_P2;Temp;Humidity;BMP_temperature;BMP_pressure;BME280_temperature;BME280_humidity;BME280_pressure;Samples;Min_cycle;Max_cycle;Signal;HPM_P1;HPM_P2
2024/03/10 00:00:41;;;;;;;28.58;17.35;;;;;;;6.66;100.00;99926.75;5089815;28;20072;-79
2024/03/10 00:03:09;;;;;;;30.15;18.17;;;;;;;6.62;100.00;99897.09;5090216;28;20047;-76
2024/03/10 00:05:36;;;;;;;28.83;18.40;;;;;;;6.61;100.00;99899.88;5089741;28;20111;-79
2024/03/10 00:08:01;;;;;;;42.92;27.33;;;;;;;6.60;100.00;99880.53;5090059;28;20421;-78
2024/03/10 00:10:28;;;;;;;41.47;25.90;;;;;;;6.55;100.00;99876.63;5090606;28;20079;-78
2024/03/10 00:12:54;;;;;;;34.05;19.08;;;;;;;6.45;100.00;99858.97;5090141;28;20036;-78
2024/03/10 00:15:19;;;;;;;27.08;16.60;;;;;;;6.39;100.00;99863.94;5090162;28;20028;-78
2024/03/10 00:17:45;;;;;;;24.75;16.27;;;;;;;6.33;100.00;99886.47;5071638;28;20157;-79
2024/03/10 00:20:11;;;;;;;29.73;16.83;;;;;;;6.21;100.00;99893.66;5071702;28;20070;-78
2024/03/10 00:22:38;;;;;;;27.27;15.82;;;;;;;6.11;100.00;99890.16;5071205;28;20101;-78
2024/03/10 00:25:05;;;;;;;25.20;15.88;;;;;;;5.98;100.00;99899.13;5089895;28;20133;-78
2024/03/10 00:27:31;;;;;;;25.85;16.20;;;;;;;5.84;100.00;99896.81;5089691;28;20081;-78
2024/03/10 00:29:56;;;;;;;25.92;15.40;;;;;;;5.73;100.00;99886.31;5091768;28;20095;-78
2024/03/10 00:32:24;;;;;;;26.90;16.17;;;;;;;5.59;100.00;99893.63;5072226;28;20036;-78
2024/03/10 00:34:49;;;;;;;30.33;18.42;;;;;;;5.47;100.00;99881.47;5089959;28;20028;-77
2024/03/10 00:37:14;;;;;;;26.15;16.45;;;;;;;5.37;100.00;99870.84;5090499;28;20443;-77
2024/03/10 00:39:40;;;;;;;29.23;16.85;;;;;;;5.30;100.00;99854.72;5090355;28;20105;-78
2024/03/10 00:42:06;;;;;;;38.83;23.80;;;;;;;5.24;100.00;99838.53;5090360;28;20110;-78
2024/03/10 00:44:31;;;;;;;38.47;21.88;;;;;;;5.18;100.00;99833.78;5094334;28;20024;-77
2024/03/10 00:46:57;;;;;;;28.65;18.23;;;;;;;5.11;100.00;99839.56;5093548;28;20020;-76
2024/03/10 00:49:22;;;;;;;27.25;16.35;;;;;;;5.04;100.00;99859.50;5075787;28;20360;-76
2024/03/10 00:51:48;;;;;;;27.10;16.13;;;;;;;5.00;100.00;99879.22;5093384;28;20056;-76
2024/03/10 00:54:13;;;;;;;25.83;17.25;;;;;;;4.95;100.00;99890.09;5093658;28;20024;-76
2024/03/10 00:56:39;;;;;;;28.88;15.95;;;;;;;4.96;100.00;99893.59;5093342;28;20031;-78
2024/03/10 00:59:04;;;;;;;28.80;16.48;;;;;;;4.97;100.00;99899.69;5093679;28;20051;-75
2024/03/10 01:01:30;;;;;;;25.95;15.75;;;;;;;4.98;100.00;99898.75;5093625;28;20020;-78
2024/03/10 01:03:55;;;;;;;28.75;15.57;;;;;;;4.97;100.00;99897.91;5093118;28;20188;-79
2024/03/10 01:06:21;;;;;;;27.38;15.63;;;;;;;4.93;100.00;99886.75;5093532;28;20097;-78
2024/03/10 01:08:47;;;;;;;20.88;14.80;;;;;;;4.88;100.00;99890.72;5092688;28;20505;-77
2024/03/10 01:11:12;;;;;;;29.08;16.02;;;;;;;4.80;100.00;99901.91;5074849;28;20032;-77
2024/03/10 01:13:37;;;;;;;26.02;16.77;;;;;;;4.69;100.00;99886.97;5092725;28;20028;-77
2024/03/10 01:16:03;;;;;;;26.65;16.85;;;;;;;4.59;100.00;99888.69;5093274;28;20040;-77
2024/03/10 01:18:29;;;;;;;27.08;16.17;;;;;;;4.50;100.00;99884.97;5093238;28;20448;-77
2024/03/10 01:20:55;;;;;;;26.88;15.57;;;;;;;4.39;100.00;99872.69;5092947;28;20026;-77
2024/03/10 01:23:20;;;;;;;27.48;15.77;;;;;;;4.32;100.00;99866.22;5075091;28;20032;-78
2024/03/10 01:25:46;;;;;;;29.30;17.58;;;;;;;4.30;100.00;99856.75;5092818;28;20028;-77
2024/03/10 01:28:11;;;;;;;27.80;15.70;;;;;;;4.28;100.00;99854.25;5093304;28;20452;-78
2024/03/10 01:30:39;;;;;;;24.98;16.15;;;;;;;4.29;100.00;99841.94;5093212;28;20048;-78
2024/03/10 01:33:05;;;;;;;25.67;15.75;;;;;;;4.30;100.00;99830.44;5092610;28;20024;-78
2024/03/10 01:35:30;;;;;;;32.80;17.75;;;;;;;4.34;100.00;99823.97;5093229;28;20420;-78
2024/03/10 01:37:56;;;;;;;29.20;17.00;;;;;;;4.38;100.00;99825.41;5092590;28;20055;-78
2024/03/10 01:40:21;;;;;;;27.92;16.60;;;;;;;4.45;100.00;99823.09;5092939;28;20040;-78
2024/03/10 01:42:56;;;;;;;30.08;16.92;;;;;;;4.50;100.00;99819.13;5092512;28;20107;-78
2024/03/10 01:45:22;;;;;;;29.27;16.73;;;;;;;4.54;100.00;99825.00;5092607;28;20028;-77
2024/03/10 01:47:49;;;;;;;30.30;16.77;;;;;;;4.61;100.00;99817.41;5092321;28;20111;-77
2024/03/10 01:50:16;;;;;;;27.20;16.63;;;;;;;4.63;100.00;99808.44;5092788;28;20172;-77
2024/03/10 01:52:42;;;;;;;26.02;15.98;;;;;;;4.65;100.00;99803.84;5074036;28;20042;-77
2024/03/10 01:55:11;;;;;;;30.30;16.75;;;;;;;4.69;100.00;99825.53;5091024;28;20118;-78
2024/03/10 01:57:38;;;;;;;25.20;16.10;;;;;;;4.75;100.00;99819.75;5074000;28;20061;-77
2024/03/10 02:00:06;;;;;;;26.38;15.98;;;;;;;4.80;100.00;99822.84;5092016;28;20282;-78
2024/03/10 02:02:32;;;;;;;26.88;15.50;;;;;;;4.84;100.00;99824.28;5074394;28;20356;-78
2024/03/10 02:05:00;;;;;;;26.70;16.30;;;;;;;4.86;100.00;99832.88;5091802;28;20092;-78
2024/03/10 02:07:26;;;;;;;28.40;15.95;;;;;;;4.88;100.00;99832.75;5092668;28;20039;-78
2024/03/10 02:09:52;;;;;;;26.60;15.38;;;;;;;4.89;100.00;99826.53;5073232;28;20052;-77
2024/03/10 02:12:18;;;;;;;24.85;15.40;;;;;;;4.89;100.00;99826.53;5091705;28;20024;-77
2024/03/10 02:15:03;;;;;;;25.65;15.57;;;;;;;4.90;100.00;99828.19;5073799;28;20044;-76
2024/03/10 02:17:30;;;;;;;28.10;16.17;;;;;;;4.91;100.00;99829.84;5091384;28;20040;-76
2024/03/10 02:19:58;;;;;;;27.60;16.85;;;;;;;4.91;100.00;99817.53;5091537;28;20351;-77
2024/03/10 02:22:24;;;;;;;26.83;16.02;;;;;;;4.91;100.00;99827.22;5092113;28;20457;-77
2024/03/10 02:24:54;;;;;;;27.88;16.23;;;;;;;4.93;100.00;99814.75;5091534;28;20024;-77
2024/03/10 02:27:21;;;;;;;25.65;14.70;;;;;;;4.91;100.00;99812.25;5091883;28;20103;-77
2024/03/10 02:30:00;;;;;;;28.35;15.75;;;;;;;4.92;100.00;99803.34;5091842;28;20036;-76
2024/03/10 02:48:51;;;;;;;25.52;15.98;;;;;;;4.98;100.00;99795.91;5091629;28;20105;-78
2024/03/10 02:51:17;;;;;;;31.00;16.88;;;;;;;4.99;100.00;99794.97;5091593;28;20092;-77
2024/03/10 02:53:43;;;;;;;25.10;15.27;;;;;;;4.98;100.00;99793.28;5073287;28;20058;-78
2024/03/10 02:56:08;;;;;;;28.60;15.55;;;;;;;4.98;100.00;99786.19;5091584;28;20083;-77
2024/03/10 02:58:38;;;;;;;26.70;15.50;;;;;;;4.98;100.00;99783.56;5074037;28;20028;-77
2024/03/10 03:01:05;;;;;;;30.15;16.55;;;;;;;4.98;100.00;99785.38;5091629;28;20028;-78
2024/03/10 03:03:31;;;;;;;29.30;17.13;;;;;;;4.98;100.00;99793.28;5092142;28;20024;-79
2024/03/10 03:05:57;;;;;;;25.40;15.55;;;;;;;4.99;100.00;99794.97;5094316;28;20093;-78
2024/03/10 03:08:24;;;;;;;28.20;16.90;;;;;;;4.98;100.00;99790.66;5095130;28;20122;-79
2024/03/10 03:10:50;;;;;;;24.13;15.63;;;;;;;5.00;100.00;99796.63;5091989;28;20464;-78
2024/03/10 03:13:17;;;;;;;25.23;16.48;;;;;;;4.98;100.00;99790.66;5072516;28;20043;-77
2024/03/10 03:15:42;;;;;;;24.63;15.65;;;;;;;4.98;100.00;99788.00;5091130;28;20024;-77
2024/03/10 03:18:08;;;;;;;26.90;16.27;;;;;;;4.95;100.00;99782.00;5072246;28;20039;-77
2024/03/10 03:20:35;;;;;;;27.05;16.33;;;;;;;4.96;100.00;99774.97;5072915;28;20020;-77
2024/03/10 03:23:04;;;;;;;24.50;15.02;;;;;;;4.96;100.00;99772.31;5072980;28;20035;-77
2024/03/10 03:25:30;;;;;;;28.83;16.88;;;;;;;4.94;100.00;99764.53;5091203;28;20028;-77
2024/03/10 03:27:55;;;;;;;26.60;16.13;;;;;;;4.94;100.00;99763.69;5090516;28;20083;-77
2024/03/10 03:30:22;;;;;;;28.05;15.93;;;;;;;4.92;100.00;99753.28;5090808;28;20379;-77
2024/03/10 03:32:48;;;;;;;28.13;17.48;;;;;;;4.91;100.00;99756.91;5090451;28;20402;-77
2024/03/10 03:35:17;;;;;;;26.23;17.20;;;;;;;4.90;100.00;99760.50;5090550;28;20024;-76
2024/03/10 03:37:45;;;;;;;30.30;17.73;;;;;;;4.89;100.00;99758.81;5090604;28;20502;-77
2024/03/10 03:40:13;;;;;;;30.88;16.92;;;;;;;4.90;100.00;99754.41;5071860;28;20020;-77
2024/03/10 03:42:39;;;;;;;28.13;16.45;;;;;;;4.89;100.00;99760.63;5090829;28;20032;-77
2024/03/10 03:45:05;;;;;;;28.95;17.33;;;;;;;4.85;100.00;99752.16;5090073;28;20111;-77
2024/03/10 03:47:32;;;;;;;29.23;17.27;;;;;;;4.84;100.00;99755.72;5090462;28;20032;-77
2024/03/10 03:49:57;;;;;;;29.38;17.77;;;;;;;4.82;100.00;99752.41;5090423;28;20107;-77
2024/03/10 03:52:23;;;;;;;28.80;17.70;;;;;;;4.82;100.00;99751.56;5090173;28;20038;-77
2024/03/10 03:54:51;;;;;;;28.88;17.48;;;;;;;4.79;100.00;99760.53;5071723;28;20102;-77
2024/03/10 03:57:17;;;;;;;31.08;17.95;;;;;;;4.77;100.00;99759.84;5071639;28;20437;-77
2024/03/10 03:59:43;;;;;;;28.67;17.40;;;;;;;4.75;100.00;99761.78;5090469;28;20024;-77
2024/03/10 04:02:08;;;;;;;30.55;17.60;;;;;;;4.74;100.00;99765.38;5090021;28;20035;-77
2024/03/10 04:04:34;;;;;;;29.73;18.63;;;;;;;4.73;100.00;99764.53;5090359;28;20035;-77
2024/03/10 04:06:59;;;;;;;28.13;17.45;;;;;;;4.73;100.00;99758.41;5090452;28;20112;-77
2024/03/10 04:09:25;;;;;;;30.02;18.63;;;;;;;4.72;100.00;99759.41;5089663;28;20071;-76
2024/03/10 04:11:51;;;;;;;30.70;18.48;;;;;;;4.73;100.00;99753.16;5090492;28;20055;-78
2024/03/10 04:14:16;;;;;;;38.17;19.05;;;;;;;4.73;100.00;99756.66;5071619;28;20084;-78
2024/03/10 04:16:45;;;;;;;31.20;18.17;;;;;;;4.74;100.00;99750.38;5090337;28;20445;-78
2024/03/10 04:19:11;;;;;;;32.70;18.88;;;;;;;4.74;100.00;99755.66;5089319;28;20147;-78
2024/03/10 04:21:37;;;;;;;32.03;19.25;;;;;;;4.74;100.00;99741.66;5090301;28;20032;-78
2024/03/10 04:24:07;;;;;;;34.85;19.73;;;;;;;4.75;100.00;99735.44;5090153;28;20027;-78
2024/03/10 04:26:33;;;;;;;33.70;20.00;;;;;;;4.75;100.00;99730.97;5090112;28;20031;-78
2024/03/10 04:28:58;;;;;;;32.63;19.10;;;;;;;4.76;100.00;99730.03;5072192;28;20016;-79
2024/03/10 04:31:24;;;;;;;34.58;19.42;;;;;;;4.77;100.00;99730.84;5054992;28;20443;-79
2024/03/10 04:33:50;;;;;;;32.47;19.73;;;;;;;4.79;100.00;99731.56;5071627;28;20357;-79
2024/03/10 04:36:16;;;;;;;31.92;19.25;;;;;;;4.81;100.00;99726.16;5089710;28;20028;-78
2024/03/10 04:38:43;;;;;;;35.10;20.52;;;;;;;4.82;100.00;99733.09;5090217;28;20096;-76
2024/03/10 04:41:09;;;;;;;33.83;19.02;;;;;;;4.82;100.00;99723.41;5071857;28;20056;-78
2024/03/10 04:43:35;;;;;;;32.78;20.55;;;;;;;4.82;100.00;99727.81;5090307;28;20053;-78
2024/03/10 04:46:03;;;;;;;36.25;21.08;;;;;;;4.81;100.00;99732.28;5092696;28;20032;-88
2024/03/10 04:48:30;;;;;;;34.08;20.55;;;;;;;4.81;100.00;99744.59;5076808;28;20032;-88
2024/03/10 04:50:56;;;;;;;31.55;18.92;;;;;;;4.79;100.00;99742.09;5094784;28;20108;-90
2024/03/10 04:53:21;;;;;;;32.78;19.40;;;;;;;4.80;100.00;99749.03;5094393;28;20452;-88
2024/03/10 04:55:47;;;;;;;39.28;20.88;;;;;;;4.78;100.00;99740.44;5094018;28;20020;-89
2024/03/10 04:58:12;;;;;;;38.13;20.58;;;;;;;4.76;100.00;99737.06;5075931;28;20032;-89
2024/03/10 05:00:38;;;;;;;35.20;20.33;;;;;;;4.73;100.00;99727.66;5076022;28;20081;-88
2024/03/10 05:03:05;;;;;;;32.58;19.92;;;;;;;4.71;100.00;99728.72;5094076;28;20484;-89
2024/03/10 05:05:31;;;;;;;35.83;20.75;;;;;;;4.68;100.00;99739.53;5094130;28;20044;-89
2024/03/10 05:07:57;;;;;;;37.80;21.40;;;;;;;4.66;100.00;99746.72;5094332;28;20032;-89
2024/03/10 05:10:22;;;;;;;31.10;19.67;;;;;;;4.63;100.00;99732.03;5098749;28;20118;-88
2024/03/10 05:12:48;;;;;;;34.15;20.35;;;;;;;4.62;100.00;99727.69;5107767;28;20094;-88
2024/03/10 05:15:17;;;;;;;33.60;19.70;;;;;;;4.61;100.00;99727.81;5081548;28;20112;-91
2024/03/10 05:17:42;;;;;;;36.92;21.45;;;;;;;4.61;100.00;99728.66;5097330;28;20383;-89
2024/03/10 05:20:12;;;;;;;32.60;20.27;;;;;;;4.58;100.00;99734.19;5103297;28;20134;-90
2024/03/10 05:22:39;;;;;;;33.33;21.40;;;;;;;4.56;100.00;99736.94;5102423;28;20020;-88
2024/03/10 05:25:08;;;;;;;34.97;20.00;;;;;;;4.54;100.00;99730.16;5083963;28;20028;-88
2024/03/10 05:27:34;;;;;;;39.75;20.80;;;;;;;4.53;100.00;99733.75;5099757;28;20057;-90
2024/03/10 05:29:59;;;;;;;33.22;19.77;;;;;;;4.50;100.00;99734.81;5105570;28;20036;-88
2024/03/10 05:32:25;;;;;;;33.67;20.25;;;;;;;4.46;100.00;99722.88;5105590;28;20405;-88
2024/03/10 05:34:56;;;;;;;33.30;19.83;;;;;;;4.39;100.00;99719.09;5103425;28;20035;-90
2024/03/10 05:37:22;;;;;;;29.05;19.42;;;;;;;4.29;100.00;99716.38;5100119;28;20024;-88
2024/03/10 05:39:47;;;;;;;33.30;19.77;;;;;;;4.20;100.00;99720.59;5104794;28;20089;-91
2024/03/10 05:42:13;;;;;;;36.50;20.30;;;;;;;4.11;100.00;99720.50;5106614;28;20161;-92
2024/03/10 05:44:40;;;;;;;31.50;19.35;;;;;;;4.02;100.00;99730.81;5105340;28;20032;-90
2024/03/10 05:47:06;;;;;;;35.83;21.27;;;;;;;3.93;100.00;99722.84;5103465;28;20024;-91
2024/03/10 05:49:32;;;;;;;37.55;21.67;;;;;;;3.86;100.00;99730.38;5087323;28;20130;-91
2024/03/10 05:51:57;;;;;;;38.42;21.00;;;;;;;3.78;100.00;99733.63;5085664;28;20048;-91
2024/03/10 05:54:22;;;;;;;37.42;20.58;;;;;;;3.74;100.00;99726.94;5101722;28;20035;-90
2024/03/10 05:56:48;;;;;;;39.40;21.63;;;;;;;3.74;100.00;99734.00;5100162;28;20024;-91
2024/03/10 05:59:14;;;;;;;41.15;21.25;;;;;;;3.72;100.00;99734.13;5099101;28;20031;-88
2024/03/10 06:01:42;;;;;;;36.83;21.67;;;;;;;3.70;100.00;99734.25;5099285;28;20437;-91
2024/03/10 06:04:08;;;;;;;36.95;20.85;;;;;;;3.69;100.00;99726.47;5099851;28;20107;-91
2024/03/10 06:06:33;;;;;;;34.03;20.63;;;;;;;3.67;100.00;99726.59;5110327;28;20031;-90
2024/03/10 06:09:00;;;;;;;38.97;21.42;;;;;;;3.68;100.00;99722.97;5082207;28;20048;-89
2024/03/10 06:11:26;;;;;;;38.03;21.50;;;;;;;3.68;100.00;99719.53;5099451;28;20047;-90
2024/03/10 06:13:51;;;;;;;35.88;21.13;;;;;;;3.69;100.00;99721.22;5084159;28;20031;-89
2024/03/10 06:16:17;;;;;;;33.90;19.95;;;;;;;3.67;100.00;99713.44;5083164;28;20032;-90
2024/03/10 06:26:53;;;;;;;39.45;22.63;;;;;;;3.51;100.00;99719.06;5082831;28;20039;-91
2024/03/10 06:29:19;;;;;;;35.90;21.90;;;;;;;3.47;100.00;99730.78;5097443;28;20032;-89
2024/03/10 06:31:45;;;;;;;37.92;22.00;;;;;;;3.44;100.00;99731.03;5078860;28;20030;-88
2024/03/10 06:34:10;;;;;;;35.08;20.65;;;;;;;3.42;100.00;99725.06;5078840;28;20111;-89
2024/03/10 06:36:36;;;;;;;37.38;21.05;;;;;;;3.42;100.00;99732.09;5097257;28;20040;-89
2024/03/10 06:39:03;;;;;;;35.45;20.88;;;;;;;3.41;100.00;99738.34;5097906;28;20028;-88
2024/03/10 06:41:29;;;;;;;34.90;21.13;;;;;;;3.39;100.00;99741.09;5096941;28;20099;-89
2024/03/10 06:43:55;;;;;;;40.47;21.95;;;;;;;3.39;100.00;99751.59;5078729;28;20131;-88
2024/03/10 06:46:21;;;;;;;38.08;21.58;;;;;;;3.40;100.00;99753.25;5096483;28;20028;-88
2024/03/10 06:48:46;;;;;;;38.88;20.63;;;;;;;3.41;100.00;99751.47;5096311;28;20122;-89
2024/03/10 06:51:12;;;;;;;38.45;21.85;;;;;;;3.43;100.00;99752.19;5096255;28;20062;-90
2024/03/10 06:53:37;;;;;;;39.28;21.92;;;;;;;3.45;100.00;99745.00;5096207;28;20369;-91
2024/03/10 06:56:04;;;;;;;39.33;21.65;;;;;;;3.48;100.00;99748.25;5096284;28;20527;-88
2024/03/10 06:58:30;;;;;;;36.05;22.15;;;;;;;3.51;100.00;99753.25;5096807;28;20035;-88
2024/03/10 07:00:56;;;;;;;34.65;21.10;;;;;;;3.55;100.00;99750.38;5096455;28;20024;-86
2024/03/10 07:03:21;;;;;;;39.65;21.33;;;;;;;3.61;100.00;99752.53;5096729;28;20020;-88
2024/03/10 07:05:47;;;;;;;39.20;20.73;;;;;;;3.67;100.00;99746.78;5097109;28;20493;-89
2024/03/10 07:08:15;;;;;;;36.80;21.63;;;;;;;3.74;100.00;99745.34;5096787;28;20032;-87
2024/03/10 07:10:41;;;;;;;39.53;21.10;;;;;;;3.82;100.00;99745.59;5097667;28;20056;-88
2024/03/10 07:13:11;;;;;;;37.38;21.38;;;;;;;3.92;100.00;99742.22;5096306;28;20036;-88
2024/03/10 07:15:37;;;;;;;35.83;20.80;;;;;;;3.99;100.00;99736.31;5097098;28;20062;-88
2024/03/10 07:18:05;;;;;;;33.58;20.83;;;;;;;4.09;100.00;99743.47;5101331;28;20460;-88
2024/03/10 07:20:30;;;;;;;37.13;20.50;;;;;;;4.17;100.00;99736.63;5106698;28;20036;-88
2024/03/10 07:22:56;;;;;;;39.55;20.70;;;;;;;4.26;100.00;99740.31;5101933;28;20673;-89
2024/03/10 07:25:24;;;;;;;42.08;23.85;;;;;;;4.32;100.00;99741.63;5101665;28;20034;-89
2024/03/10 07:27:49;;;;;;;40.95;22.98;;;;;;;4.39;100.00;99748.88;5103486;28;20039;-88
2024/03/10 07:30:15;;;;;;;38.50;20.42;;;;;;;4.45;100.00;99742.28;5097819;28;20028;-89
2024/03/10 07:32:40;;;;;;;34.20;19.30;;;;;;;4.52;100.00;99755.78;5118366;28;20039;-87
2024/03/10 07:35:08;;;;;;;33.95;19.27;;;;;;;4.57;100.00;99758.88;5118011;28;20055;-88
2024/03/10 07:37:34;;;;;;;36.10;20.63;;;;;;;4.65;100.00;99766.97;5117566;28;20016;-84
2024/03/10 07:40:00;;;;;;;29.63;18.48;;;;;;;4.72;100.00;99762.03;5110164;28;20039;-88
2024/03/10 07:42:26;;;;;;;36.10;19.83;;;;;;;4.79;100.00;99755.28;5098450;28;20033;-89
2024/03/10 07:44:51;;;;;;;28.92;18.20;;;;;;;4.88;100.00;99772.13;5097822;28;20019;-90
2024/03/10 07:47:18;;;;;;;34.60;19.13;;;;;;;4.94;100.00;99776.88;5097810;28;20031;-90
2024/03/10 07:49:44;;;;;;;31.95;18.80;;;;;;;5.02;100.00;99768.34;5078750;28;20024;-89
2024/03/10 07:52:10;;;;;;;33.30;19.73;;;;;;;5.07;100.00;99768.78;5096695;28;20043;-88
2024/03/10 07:54:36;;;;;;;36.28;19.98;;;;;;;5.16;100.00;99769.81;5096228;28;20388;-88
2024/03/10 07:57:02;;;;;;;32.17;19.15;;;;;;;5.25;100.00;99756.66;5095780;28;20028;-88
2024/03/10 07:59:27;;;;;;;30.45;18.00;;;;;;;5.33;100.00;99752.53;5095596;28;20039;-88
2024/03/10 08:01:53;;;;;;;29.52;18.63;;;;;;;5.38;100.00;99748.53;5097115;28;20111;-90
2024/03/10 08:04:19;;;;;;;32.53;19.30;;;;;;;5.45;100.00;99749.69;5095486;28;20035;-89
2024/03/10 08:06:45;;;;;;;36.60;20.00;;;;;;;5.50;100.00;99744.00;5095152;28;20400;-90
2024/03/10 08:09:15;;;;;;;34.47;19.77;;;;;;;5.56;100.00;99742.63;5095504;28;20051;-89
2024/03/10 08:11:44;;;;;;;28.73;17.95;;;;;;;5.60;100.00;99741.41;5095141;28;20039;-89
2024/03/10 08:14:10;;;;;;;29.30;18.38;;;;;;;5.61;100.00;99733.34;5095223;28;20039;-88
2024/03/10 08:16:36;;;;;;;30.73;18.17;;;;;;;5.66;100.00;99732.94;5077434;28;20371;-89
2024/03/10 08:19:02;;;;;;;30.55;18.67;;;;;;;5.74;100.00;99725.19;5095594;28;20023;-87
2024/03/10 08:21:27;;;;;;;31.58;18.40;;;;;;;5.79;100.00;99727.41;5095796;28;20027;-88
2024/03/10 08:23:52;;;;;;;31.38;18.25;;;;;;;5.86;100.00;99725.91;5096452;28;20031;-87
2024/03/10 08:26:18;;;;;;;27.77;17.23;;;;;;;5.93;100.00;99727.03;5078776;28;20024;-89
2024/03/10 08:28:43;;;;;;;29.98;18.83;;;;;;;6.00;100.00;99727.34;5083372;28;20067;-88
2024/03/10 08:31:09;;;;;;;31.52;18.15;;;;;;;6.04;100.00;99728.75;5110349;28;20040;-91
2024/03/10 08:33:34;;;;;;;29.63;18.63;;;;;;;6.12;100.00;99728.91;5077117;28;20058;-91
2024/03/10 08:36:01;;;;;;;32.70;18.25;;;;;;;6.21;100.00;99727.25;5105457;28;20036;-91
2024/03/10 08:38:26;;;;;;;31.55;20.08;;;;;;;6.32;100.00;99728.91;5102534;28;20491;-91
2024/03/10 08:40:54;;;;;;;31.17;18.00;;;;;;;6.40;100.00;99721.13;5096769;28;20024;-90
2024/03/10 08:43:19;;;;;;;29.23;17.67;;;;;;;6.47;100.00;99731.97;5095920;28;20028;-91
2024/03/10 08:45:46;;;;;;;29.63;17.52;;;;;;;6.52;100.00;99727.09;5096311;28;20031;-88
2024/03/10 08:48:11;;;;;;;31.20;18.33;;;;;;;6.56;100.00;99731.13;5080855;28;20032;-85
2024/03/10 08:50:36;;;;;;;29.83;16.77;;;;;;;6.60;100.00;99732.53;5094389;28;20024;-82
2024/03/10 08:53:04;;;;;;;30.67;17.85;;;;;;;6.67;100.00;99730.13;5076594;28;20052;-85
2024/03/10 08:55:29;;;;;;;27.90;17.80;;;;;;;6.70;100.00;99732.50;5093869;28;20487;-89
2024/03/10 08:57:55;;;;;;;26.58;16.80;;;;;;;6.76;100.00;99741.69;5094413;28;20034;-85
2024/03/10 09:00:20;;;;;;;28.27;16.92;;;;;;;6.79;100.00;99741.41;5093852;28;20032;-85
2024/03/10 09:02:46;;;;;;;25.23;16.70;;;;;;;6.86;100.00;99740.69;5094089;28;20107;-86
2024/03/10 09:05:12;;;;;;;28.65;16.17;;;;;;;6.86;100.00;99732.75;5096731;28;20382;-84
2024/03/10 09:07:38;;;;;;;32.95;19.42;;;;;;;6.95;100.00;99749.59;5097915;28;20028;-79
2024/03/10 09:10:04;;;;;;;28.15;17.13;;;;;;;7.00;100.00;99746.50;5097013;28;20392;-78
2024/03/10 09:12:30;;;;;;;26.00;16.92;;;;;;;7.08;100.00;99754.56;5097098;28;20102;-82
2024/03/10 09:14:57;;;;;;;25.70;16.70;;;;;;;7.14;100.00;99756.66;5097426;28;20147;-84
2024/03/10 09:17:23;;;;;;;28.48;17.65;;;;;;;7.17;100.00;99755.53;5098247;28;20028;-87
2024/03/10 09:19:49;;;;;;;27.00;16.98;;;;;;;7.17;100.00;99760.81;5063223;28;20383;-85
2024/03/10 09:22:15;;;;;;;24.73;16.42;;;;;;;7.14;100.00;99746.06;5097753;28;20031;-84
2024/03/10 09:24:42;;;;;;;25.73;16.33;;;;;;;7.22;100.00;99755.94;5079684;28;20024;-82
2024/03/10 09:27:08;;;;;;;25.38;16.33;;;;;;;7.27;100.00;99756.34;5098089;28;20024;-87
2024/03/10 09:29:34;;;;;;;28.65;16.25;;;;;;;7.29;100.00;99750.91;5098022;28;20035;-86
2024/03/10 09:32:01;;;;;;;25.98;16.25;;;;;;;7.35;100.00;99742.38;5099032;28;20020;-91
2024/03/10 09:34:27;;;;;;;24.60;16.17;;;;;;;7.39;100.00;99744.59;5098228;28;20035;-86
2024/03/10 09:36:56;;;;;;;25.98;15.85;;;;;;;7.44;100.00;99743.34;5098244;28;20020;-86
2024/03/10 09:39:24;;;;;;;23.63;15.98;;;;;;;7.46;100.00;99742.19;5099038;28;20032;-85
2024/03/10 09:41:53;;;;;;;29.60;16.58;;;;;;;7.53;100.00;99734.50;5100033;28;20494;-87
2024/03/10 09:44:20;;;;;;;23.73;15.90;;;;;;;7.54;100.00;99725.59;5099595;28;20075;-87
2024/03/10 09:46:50;;;;;;;22.40;15.48;;;;;;;7.56;100.00;99726.28;5099030;28;20499;-79
2024/03/10 09:49:20;;;;;;;24.92;15.70;;;;;;;7.59;100.00;99726.81;5099224;28;20141;-84
2024/03/10 09:51:49;;;;;;;26.60;15.38;;;;;;;7.65;100.00;99725.38;5099279;28;20027;-87
2024/03/10 09:54:19;;;;;;;27.73;16.23;;;;;;;7.67;100.00;99733.19;5098038;28;20099;-85
2024/03/10 09:56:50;;;;;;;23.77;15.60;;;;;;;7.70;100.00;99727.59;5097792;28;20020;-86
2024/03/10 09:59:36;;;;;;;27.98;14.55;;;;;;;7.82;100.00;99721.09;5097097;28;20047;-82
2024/03/10 10:02:05;;;;;;;24.33;14.73;;;;;;;7.95;100.00;99710.97;5078378;28;20060;-82
2024/03/10 10:04:46;;;;;;;22.52;15.30;;;;;;;8.09;100.00;99714.94;5097747;28;20020;-89
2024/03/10 10:07:12;;;;;;;23.52;15.05;;;;;;;8.22;100.00;99711.91;5102120;28;20047;-85
2024/03/10 10:09:38;;;;;;;26.05;15.38;;;;;;;8.32;100.00;99718.97;5078514;28;20138;-82
2024/03/10 10:12:04;;;;;;;26.17;15.63;;;;;;;8.39;100.00;99723.50;5097251;28;20229;-80
2024/03/10 10:14:30;;;;;;;25.60;15.32;;;;;;;8.48;100.00;99732.41;5097875;28;20436;-82
2024/03/10 10:16:57;;;;;;;23.52;15.18;;;;;;;8.53;100.00;99730.13;5095832;28;20090;-82
2024/03/10 10:19:27;;;;;;;27.27;15.95;;;;;;;8.60;100.00;99752.38;5096204;28;20028;-81
2024/03/10 10:21:55;;;;;;;21.73;14.15;;;;;;;8.65;100.00;99738.66;5078965;28;20028;-83
2024/03/10 10:24:21;;;;;;;29.42;15.25;;;;;;;8.74;100.00;99732.44;5079160;28;20027;-81
2024/03/10 10:27:05;;;;;;;24.42;14.90;;;;;;;8.86;100.00;99718.94;5099144;28;20052;-84
2024/03/10 10:29:31;;;;;;;23.92;15.30;;;;;;;8.98;100.00;99720.34;5097661;28;20028;-83
2024/03/10 10:32:00;;;;;;;24.10;15.32;;;;;;;8.98;100.00;99734.41;5098457;28;20062;-85
2024/03/10 10:34:26;;;;;;;24.52;14.57;;;;;;;9.04;100.00;99735.63;5099185;28;20136;-87
2024/03/10 10:36:55;;;;;;;24.60;16.08;;;;;;;9.04;100.00;99738.28;5098099;28;20028;-83
2024/03/10 10:39:26;;;;;;;21.00;14.27;;;;;;;9.02;100.00;99737.63;5100435;28;20031;-85
2024/03/10 10:41:56;;;;;;;26.40;15.50;;;;;;;9.05;100.00;99734.66;5102314;28;20024;-86
2024/03/10 10:44:26;;;;;;;21.48;15.20;;;;;;;9.09;100.00;99745.75;5102410;28;20020;-87
2024/03/10 10:46:52;;;;;;;20.95;14.43;;;;;;;9.09;100.00;99749.28;5086908;28;20024;-82
2024/03/10 10:49:21;;;;;;;24.20;14.95;;;;;;;9.10;100.00;99742.13;5084977;28;20099;-83
2024/03/10 10:51:56;;;;;;;30.65;19.40;;;;;;;9.18;100.00;99737.72;5104637;28;20438;-86
2024/03/10 10:54:22;;;;;;;29.77;15.80;;;;;;;9.24;100.00;99748.69;5112190;28;20055;-85
2024/03/10 10:56:55;;;;;;;24.58;15.52;;;;;;;9.26;100.00;99752.84;5097360;28;20028;-86
2024/03/10 10:59:24;;;;;;;25.88;14.98;;;;;;;9.25;100.00;99759.13;5096992;28;20028;-84
2024/03/10 11:02:19;;;;;;;23.70;15.27;;;;;;;9.23;100.00;99757.66;5114645;28;20028;-90
2024/03/10 11:04:45;;;;;;;23.33;14.65;;;;;;;9.21;100.00;99768.41;5095848;28;20115;-91
2024/03/10 11:07:13;;;;;;;23.20;15.43;;;;;;;9.15;100.00;99772.53;5116055;28;20055;-79
2024/03/10 11:09:39;;;;;;;22.42;15.00;;;;;;;9.13;100.00;99784.28;5109995;28;20047;-88
2024/03/10 11:12:21;;;;;;;21.15;13.80;;;;;;;9.08;100.00;99778.63;5102629;28;20024;-87
2024/03/10 11:14:48;;;;;;;23.23;15.45;;;;;;;9.05;100.00;99766.47;5106115;28;20024;-84
2024/03/10 11:17:18;;;;;;;23.52;15.20;;;;;;;9.07;100.00;99777.75;5098248;28;20024;-84
2024/03/10 11:19:47;;;;;;;20.13;14.15;;;;;;;9.01;100.00;99783.69;5097718;28;20036;-84
2024/03/10 11:22:14;;;;;;;23.10;15.00;;;;;;;9.01;100.00;99775.72;5096012;28;20028;-83
2024/03/10 11:24:40;;;;;;;25.42;13.70;;;;;;;9.00;100.00;99780.22;5077433;28;20101;-85
2024/03/10 11:27:21;;;;;;;21.77;14.82;;;;;;;9.01;100.00;99773.09;5095366;28;20027;-88
2024/03/10 11:29:48;;;;;;;21.08;14.50;;;;;;;9.05;100.00;99766.47;5062367;28;20482;-88
2024/03/10 11:32:33;;;;;;;21.50;14.63;;;;;;;9.07;100.00;99777.75;5098386;28;20024;-84
2024/03/10 11:35:06;;;;;;;21.63;14.77;;;;;;;9.11;100.00;99786.25;5094698;28;20028;-79
2024/03/10 11:37:34;;;;;;;22.33;14.10;;;;;;;9.13;100.00;99779.78;5096062;28;20027;-83
2024/03/10 11:40:03;;;;;;;21.65;14.20;;;;;;;9.15;100.00;99780.50;5096163;28;20115;-88